sensor_id;sensor_type;location;lat;lon;timestamp;temperature;humidity
20483;DHT22;10400;53.198;6.592;2023-08-17T00:02:16;17.10;99.90
20483;DHT22;10400;53.198;6.592;2023-08-17T00:04:42;17.10;99.90
20483;DHT22;10400;53.198;6.592;2023-08-17T00:07:08;17.10;99.90
20483;DHT22;10400;53.198;6.592;2023-08-17T00:09:33;17.10;99.90
20483;DHT22;10400;53.198;6.592;2023-08-17T00:11:59;17.10;99.90
20483;DHT22;10400;53.198;6.592;2023-08-17T00:14:25;17.10;99.90
20483;DHT22;10400;53.198;6.592;2023-08-17T00:16:50;17.10;99.90
20483;DHT22;10400;53.198;6.592;2023-08-17T00:19:17;17.10;99.90
20483;DHT22;10400;53.198;6.592;2023-08-17T00:21:44;17.20;99.90
20483;DHT22;10400;53.198;6.592;2023-08-17T00:24:10;17.20;99.90
20483;DHT22;10400;53.198;6.592;2023-08-17T00:26:36;17.20;99.90
20483;DHT22;10400;53.198;6.592;2023-08-17T00:29:02;17.20;99.90
20483;DHT22;10400;53.198;6.592;2023-08-17T00:31:28;17.10;99.90
20483;DHT22;10400;53.198;6.592;2023-08-17T00:33:54;17.20;99.90
20483;DHT22;10400;53.198;6.592;2023-08-17T00:36:19;17.10;99.90
20483;DHT22;10400;53.198;6.592;2023-08-17T00:38:45;17.20;99.90
20483;DHT22;10400;53.198;6.592;2023-08-17T00:41:10;17.20;99.90
20483;DHT22;10400;53.198;6.592;2023-08-17T00:43:36;17.20;99.90
20483;DHT22;10400;53.198;6.592;2023-08-17T00:46:02;17.20;99.90
20483;DHT22;10400;53.198;6.592;2023-08-17T00:48:28;17.20;99.90
20483;DHT22;10400;53.198;6.592;2023-08-17T00:50:58;17.10;99.90
20483;DHT22;10400;53.198;6.592;2023-08-17T00:53:27;17.10;99.90
20483;DHT22;10400;53.198;6.592;2023-08-17T00:55:55;17.00;99.90
20483;DHT22;10400;53.198;6.592;2023-08-17T00:58:21;16.90;99.90
20483;DHT22;10400;53.198;6.592;2023-08-17T01:00:47;16.80;99.90
20483;DHT22;10400;53.198;6.592;2023-08-17T01:03:13;16.80;99.90
20483;DHT22;10400;53.198;6.592;2023-08-17T01:05:40;16.80;99.90
20483;DHT22;10400;53.198;6.592;2023-08-17T01:08:05;16.80;99.90
20483;DHT22;10400;53.198;6.592;2023-08-17T01:10:45;16.80;99.90
20483;DHT22;10400;53.198;6.592;2023-08-17T01:13:19;16.80;99.90
20483;DHT22;10400;53.198;6.592;2023-08-17T01:15:50;16.80;99.90
20483;DHT22;10400;53.198;6.592;2023-08-17T01:18:37;16.80;99.90
20483;DHT22;10400;53.198;6.592;2023-08-17T01:21:06;16.80;99.90
20483;DHT22;10400;53.198;6.592;2023-08-17T01:23:33;16.80;99.90
20483;DHT22;10400;53.198;6.592;2023-08-17T01:25:59;16.80;99.90
20483;DHT22;10400;53.198;6.592;2023-08-17T01:28:25;16.80;99.90
20483;DHT22;10400;53.198;6.592;2023-08-17T01:33:43;16.70;99.90
20483;DHT22;10400;53.198;6.592;2023-08-17T01:38:56;16.80;99.90
20483;DHT22;10400;53.198;6.592;2023-08-17T01:41:23;16.80;99.90
20483;DHT22;10400;53.198;6.592;2023-08-17T01:43:51;16.60;99.90
20483;DHT22;10400;53.198;6.592;2023-08-17T01:46:17;16.70;99.90
20483;DHT22;10400;53.198;6.592;2023-08-17T01:48:44;16.70;99.90
20483;DHT22;10400;53.198;6.592;2023-08-17T01:51:11;16.70;99.90
20483;DHT22;10400;53.198;6.592;2023-08-17T01:53:37;16.70;99.90
20483;DHT22;10400;53.198;6.592;2023-08-17T01:56:03;16.70;99.90
20483;DHT22;10400;53.198;6.592;2023-08-17T01:58:28;16.70;99.90
20483;DHT22;10400;53.198;6.592;2023-08-17T02:00:54;16.70;99.90
20483;DHT22;10400;53.198;6.592;2023-08-17T02:03:19;16.60;99.90
20483;DHT22;10400;53.198;6.592;2023-08-17T02:05:46;16.60;99.90
20483;DHT22;10400;53.198;6.592;2023-08-17T02:08:12;16.60;99.90
20483;DHT22;10400;53.198;6.592;2023-08-17T02:10:37;16.60;99.90
20483;DHT22;10400;53.198;6.592;2023-08-17T02:13:04;16.60;99.90
20483;DHT22;10400;53.198;6.592;2023-08-17T02:15:30;16.60;99.90
20483;DHT22;10400;53.198;6.592;2023-08-17T02:18:01;16.50;99.90
20483;DHT22;10400;53.198;6.592;2023-08-17T02:20:27;16.50;99.90
20483;DHT22;10400;53.198;6.592;2023-08-17T02:22:52;16.50;99.90
20483;DHT22;10400;53.198;6.592;2023-08-17T02:25:18;16.50;99.90
20483;DHT22;10400;53.198;6.592;2023-08-17T02:27:43;16.50;99.90
20483;DHT22;10400;53.198;6.592;2023-08-17T02:30:09;16.60;99.90
20483;DHT22;10400;53.198;6.592;2023-08-17T02:32:35;16.50;99.90
20483;DHT22;10400;53.198;6.592;2023-08-17T02:35:01;16.50;99.90
20483;DHT22;10400;53.198;6.592;2023-08-17T02:37:27;16.50;99.90
20483;DHT22;10400;53.198;6.592;2023-08-17T02:39:52;16.50;99.90
20483;DHT22;10400;53.198;6.592;2023-08-17T02:42:18;16.50;99.90
20483;DHT22;10400;53.198;6.592;2023-08-17T02:44:43;16.50;99.90
20483;DHT22;10400;53.198;6.592;2023-08-17T02:47:09;16.30;99.90
20483;DHT22;10400;53.198;6.592;2023-08-17T02:49:35;16.30;99.90
20483;DHT22;10400;53.198;6.592;2023-08-17T02:52:01;16.30;99.90
20483;DHT22;10400;53.198;6.592;2023-08-17T02:54:26;16.40;99.90
20483;DHT22;10400;53.198;6.592;2023-08-17T02:56:52;16.40;99.90
20483;DHT22;10400;53.198;6.592;2023-08-17T02:59:17;16.30;99.90
20483;DHT22;10400;53.198;6.592;2023-08-17T03:01:44;16.30;99.90
20483;DHT22;10400;53.198;6.592;2023-08-17T03:04:10;16.20;99.90
20483;DHT22;10400;53.198;6.592;2023-08-17T03:06:36;16.30;99.90
20483;DHT22;10400;53.198;6.592;2023-08-17T03:09:02;16.30;99.90
20483;DHT22;10400;53.198;6.592;2023-08-17T03:11:27;16.20;99.90
20483;DHT22;10400;53.198;6.592;2023-08-17T03:13:53;16.20;99.90
20483;DHT22;10400;53.198;6.592;2023-08-17T03:16:25;16.20;99.90
20483;DHT22;10400;53.198;6.592;2023-08-17T03:18:51;16.20;99.90
20483;DHT22;10400;53.198;6.592;2023-08-17T03:21:16;16.20;99.90
20483;DHT22;10400;53.198;6.592;2023-08-17T03:23:44;16.20;99.90
20483;DHT22;10400;53.198;6.592;2023-08-17T03:26:09;16.30;99.90
20483;DHT22;10400;53.198;6.592;2023-08-17T03:28:35;16.20;99.90
20483;DHT22;10400;53.198;6.592;2023-08-17T03:31:02;16.30;99.90
20483;DHT22;10400;53.198;6.592;2023-08-17T03:33:28;16.30;99.90
20483;DHT22;10400;53.198;6.592;2023-08-17T03:35:54;16.30;99.90
20483;DHT22;10400;53.198;6.592;2023-08-17T03:38:19;16.30;99.90
20483;DHT22;10400;53.198;6.592;2023-08-17T03:40:48;16.30;99.90
20483;DHT22;10400;53.198;6.592;2023-08-17T03:43:14;16.20;99.90
20483;DHT22;10400;53.198;6.592;2023-08-17T03:45:43;16.30;99.90
20483;DHT22;10400;53.198;6.592;2023-08-17T03:48:09;16.30;99.90
20483;DHT22;10400;53.198;6.592;2023-08-17T03:50:34;16.30;99.90
20483;DHT22;10400;53.198;6.592;2023-08-17T03:53:00;16.30;99.90
20483;DHT22;10400;53.198;6.592;2023-08-17T03:55:26;16.30;99.90
20483;DHT22;10400;53.198;6.592;2023-08-17T03:57:51;16.20;99.90
20483;DHT22;10400;53.198;6.592;2023-08-17T04:00:17;16.20;99.90
20483;DHT22;10400;53.198;6.592;2023-08-17T04:02:43;16.20;99.90
20483;DHT22;10400;53.198;6.592;2023-08-17T04:05:09;16.20;99.90
20483;DHT22;10400;53.198;6.592;2023-08-17T04:07:34;16.20;99.90
20483;DHT22;10400;53.198;6.592;2023-08-17T04:10:00;16.20;99.90
20483;DHT22;10400;53.198;6.592;2023-08-17T04:12:26;16.10;99.90
20483;DHT22;10400;53.198;6.592;2023-08-17T04:14:51;16.10;99.90
20483;DHT22;10400;53.198;6.592;2023-08-17T04:17:17;16.10;99.90
20483;DHT22;10400;53.198;6.592;2023-08-17T04:19:43;16.10;99.90
20483;DHT22;10400;53.198;6.592;2023-08-17T04:22:08;16.10;99.90
20483;DHT22;10400;53.198;6.592;2023-08-17T04:24:35;16.10;99.90
20483;DHT22;10400;53.198;6.592;2023-08-17T04:27:00;16.10;99.90
20483;DHT22;10400;53.198;6.592;2023-08-17T04:29:26;16.10;99.90
20483;DHT22;10400;53.198;6.592;2023-08-17T04:31:52;16.10;99.90
20483;DHT22;10400;53.198;6.592;2023-08-17T04:34:17;16.10;99.90
20483;DHT22;10400;53.198;6.592;2023-08-17T04:36:43;16.00;99.90
20483;DHT22;10400;53.198;6.592;2023-08-17T04:39:08;16.10;99.90
20483;DHT22;10400;53.198;6.592;2023-08-17T04:41:35;16.10;99.90
20483;DHT22;10400;53.198;6.592;2023-08-17T04:44:00;16.00;99.90
20483;DHT22;10400;53.198;6.592;2023-08-17T04:46:26;16.10;99.90
20483;DHT22;10400;53.198;6.592;2023-08-17T04:48:51;16.10;99.90
20483;DHT22;10400;53.198;6.592;2023-08-17T04:51:18;16.00;99.90
20483;DHT22;10400;53.198;6.592;2023-08-17T04:53:43;16.00;99.90
20483;DHT22;10400;53.198;6.592;2023-08-17T04:56:09;16.10;99.90
20483;DHT22;10400;53.198;6.592;2023-08-17T04:58:35;16.10;99.90
20483;DHT22;10400;53.198;6.592;2023-08-17T05:01:00;16.00;99.90
20483;DHT22;10400;53.198;6.592;2023-08-17T05:03:26;16.10;99.90
20483;DHT22;10400;53.198;6.592;2023-08-17T05:05:52;16.00;99.90
20483;DHT22;10400;53.198;6.592;2023-08-17T05:08:18;16.10;99.90
20483;DHT22;10400;53.198;6.592;2023-08-17T05:10:44;16.10;99.90
20483;DHT22;10400;53.198;6.592;2023-08-17T05:13:09;16.10;99.90
20483;DHT22;10400;53.198;6.592;2023-08-17T05:15:35;16.10;99.90
20483;DHT22;10400;53.198;6.592;2023-08-17T05:18:00;16.20;99.90
20483;DHT22;10400;53.198;6.592;2023-08-17T05:20:26;16.20;99.90
20483;DHT22;10400;53.198;6.592;2023-08-17T05:22:52;16.20;99.90
20483;DHT22;10400;53.198;6.592;2023-08-17T05:25:17;16.30;99.90
20483;DHT22;10400;53.198;6.592;2023-08-17T05:27:43;16.30;99.90
20483;DHT22;10400;53.198;6.592;2023-08-17T05:30:09;16.30;99.90
20483;DHT22;10400;53.198;6.592;2023-08-17T05:32:34;16.40;99.90
20483;DHT22;10400;53.198;6.592;2023-08-17T05:35:00;16.40;99.90
20483;DHT22;10400;53.198;6.592;2023-08-17T05:37:26;16.50;99.90
20483;DHT22;10400;53.198;6.592;2023-08-17T05:39:51;16.50;99.90
20483;DHT22;10400;53.198;6.592;2023-08-17T05:42:17;16.50;99.90
20483;DHT22;10400;53.198;6.592;2023-08-17T05:44:42;16.50;99.90
20483;DHT22;10400;53.198;6.592;2023-08-17T05:47:08;16.60;99.90
20483;DHT22;10400;53.198;6.592;2023-08-17T05:49:34;16.60;99.90
20483;DHT22;10400;53.198;6.592;2023-08-17T05:51:59;16.80;99.90
20483;DHT22;10400;53.198;6.592;2023-08-17T05:54:25;16.80;99.90
20483;DHT22;10400;53.198;6.592;2023-08-17T05:56:50;16.90;99.90
20483;DHT22;10400;53.198;6.592;2023-08-17T05:59:16;17.00;99.90
20483;DHT22;10400;53.198;6.592;2023-08-17T06:01:42;17.10;99.90
20483;DHT22;10400;53.198;6.592;2023-08-17T06:04:07;17.10;99.90
20483;DHT22;10400;53.198;6.592;2023-08-17T06:06:33;17.10;99.90
20483;DHT22;10400;53.198;6.592;2023-08-17T06:08:59;17.20;99.90
20483;DHT22;10400;53.198;6.592;2023-08-17T06:11:25;17.20;99.90
20483;DHT22;10400;53.198;6.592;2023-08-17T06:13:51;17.30;99.90
20483;DHT22;10400;53.198;6.592;2023-08-17T06:16:17;17.40;99.90
20483;DHT22;10400;53.198;6.592;2023-08-17T06:18:42;17.40;99.90
20483;DHT22;10400;53.198;6.592;2023-08-17T06:21:08;17.40;99.90
20483;DHT22;10400;53.198;6.592;2023-08-17T06:23:34;17.50;99.90
20483;DHT22;10400;53.198;6.592;2023-08-17T06:26:00;17.60;99.90
20483;DHT22;10400;53.198;6.592;2023-08-17T06:28:26;17.60;99.90
20483;DHT22;10400;53.198;6.592;2023-08-17T06:30:55;17.70;99.90
20483;DHT22;10400;53.198;6.592;2023-08-17T06:33:21;17.60;99.90
20483;DHT22;10400;53.198;6.592;2023-08-17T06:35:48;17.70;99.90
20483;DHT22;10400;53.198;6.592;2023-08-17T06:38:14;17.80;99.90
20483;DHT22;10400;53.198;6.592;2023-08-17T06:40:40;17.80;99.90
20483;DHT22;10400;53.198;6.592;2023-08-17T06:43:05;17.80;99.90
20483;DHT22;10400;53.198;6.592;2023-08-17T06:45:32;17.80;99.90
20483;DHT22;10400;53.198;6.592;2023-08-17T06:47:57;17.80;99.90
20483;DHT22;10400;53.198;6.592;2023-08-17T06:50:23;17.70;99.90
20483;DHT22;10400;53.198;6.592;2023-08-17T06:52:49;17.80;99.90
20483;DHT22;10400;53.198;6.592;2023-08-17T06:55:14;17.70;99.90
20483;DHT22;10400;53.198;6.592;2023-08-17T06:57:42;17.80;99.90
20483;DHT22;10400;53.198;6.592;2023-08-17T07:00:08;17.90;99.90
20483;DHT22;10400;53.198;6.592;2023-08-17T07:02:34;17.90;99.90
20483;DHT22;10400;53.198;6.592;2023-08-17T07:05:00;17.90;99.90
20483;DHT22;10400;53.198;6.592;2023-08-17T07:07:26;18.00;99.90
20483;DHT22;10400;53.198;6.592;2023-08-17T07:09:52;18.00;99.90
20483;DHT22;10400;53.198;6.592;2023-08-17T07:12:17;18.00;99.90
20483;DHT22;10400;53.198;6.592;2023-08-17T07:14:44;18.10;99.90
20483;DHT22;10400;53.198;6.592;2023-08-17T07:17:10;18.20;99.90
20483;DHT22;10400;53.198;6.592;2023-08-17T07:19:35;18.20;99.90
20483;DHT22;10400;53.198;6.592;2023-08-17T07:22:01;18.20;99.90
20483;DHT22;10400;53.198;6.592;2023-08-17T07:24:27;18.20;99.90
20483;DHT22;10400;53.198;6.592;2023-08-17T07:26:52;18.40;99.90
20483;DHT22;10400;53.198;6.592;2023-08-17T07:29:18;18.40;99.90
20483;DHT22;10400;53.198;6.592;2023-08-17T07:31:44;18.30;99.90
20483;DHT22;10400;53.198;6.592;2023-08-17T07:34:10;18.20;99.90
20483;DHT22;10400;53.198;6.592;2023-08-17T07:36:36;18.20;99.90
20483;DHT22;10400;53.198;6.592;2023-08-17T07:39:01;18.10;99.90
20483;DHT22;10400;53.198;6.592;2023-08-17T07:41:27;18.10;99.90
20483;DHT22;10400;53.198;6.592;2023-08-17T07:43:53;18.10;99.90
20483;DHT22;10400;53.198;6.592;2023-08-17T07:46:18;18.20;99.90
20483;DHT22;10400;53.198;6.592;2023-08-17T07:48:44;18.20;99.90
20483;DHT22;10400;53.198;6.592;2023-08-17T07:51:10;18.30;99.90
20483;DHT22;10400;53.198;6.592;2023-08-17T07:53:35;18.40;99.90
20483;DHT22;10400;53.198;6.592;2023-08-17T07:56:01;18.40;99.90
20483;DHT22;10400;53.198;6.592;2023-08-17T07:58:27;18.30;99.90
20483;DHT22;10400;53.198;6.592;2023-08-17T08:00:52;18.20;99.90
20483;DHT22;10400;53.198;6.592;2023-08-17T08:03:18;18.30;99.90
20483;DHT22;10400;53.198;6.592;2023-08-17T08:05:44;18.40;99.90
20483;DHT22;10400;53.198;6.592;2023-08-17T08:08:09;18.30;99.90
20483;DHT22;10400;53.198;6.592;2023-08-17T08:10:35;18.40;99.90
20483;DHT22;10400;53.198;6.592;2023-08-17T08:13:01;18.20;99.90
20483;DHT22;10400;53.198;6.592;2023-08-17T08:15:26;18.20;99.90
20483;DHT22;10400;53.198;6.592;2023-08-17T08:17:52;18.20;99.90
20483;DHT22;10400;53.198;6.592;2023-08-17T08:20:18;18.30;99.90
20483;DHT22;10400;53.198;6.592;2023-08-17T08:22:43;18.20;99.90
20483;DHT22;10400;53.198;6.592;2023-08-17T08:25:09;18.30;99.90
20483;DHT22;10400;53.198;6.592;2023-08-17T08:27:35;18.30;99.90
20483;DHT22;10400;53.198;6.592;2023-08-17T08:30:00;18.30;99.90
20483;DHT22;10400;53.198;6.592;2023-08-17T08:32:26;18.30;99.90
20483;DHT22;10400;53.198;6.592;2023-08-17T08:34:52;18.30;99.90
20483;DHT22;10400;53.198;6.592;2023-08-17T08:37:17;18.30;99.90
20483;DHT22;10400;53.198;6.592;2023-08-17T08:39:50;18.30;99.90
20483;DHT22;10400;53.198;6.592;2023-08-17T08:42:20;18.60;99.90
20483;DHT22;10400;53.198;6.592;2023-08-17T08:44:46;18.80;99.90
20483;DHT22;10400;53.198;6.592;2023-08-17T08:47:13;18.90;96.60
20483;DHT22;10400;53.198;6.592;2023-08-17T08:49:39;18.90;96.90
20483;DHT22;10400;53.198;6.592;2023-08-17T08:52:07;18.80;96.30
20483;DHT22;10400;53.198;6.592;2023-08-17T08:54:35;18.80;97.90
20483;DHT22;10400;53.198;6.592;2023-08-17T08:57:06;18.90;99.90
20483;DHT22;10400;53.198;6.592;2023-08-17T08:59:34;18.60;96.90
20483;DHT22;10400;53.198;6.592;2023-08-17T09:02:00;18.60;99.90
20483;DHT22;10400;53.198;6.592;2023-08-17T09:04:27;18.80;97.00
20483;DHT22;10400;53.198;6.592;2023-08-17T09:06:53;19.00;96.20
20483;DHT22;10400;53.198;6.592;2023-08-17T09:09:21;19.10;87.50
20483;DHT22;10400;53.198;6.592;2023-08-17T09:11:46;19.20;89.80
20483;DHT22;10400;53.198;6.592;2023-08-17T09:14:12;19.30;73.70
20483;DHT22;10400;53.198;6.592;2023-08-17T09:16:38;19.40;76.30
20483;DHT22;10400;53.198;6.592;2023-08-17T09:19:04;19.40;51.70
20483;DHT22;10400;53.198;6.592;2023-08-17T09:21:32;19.30;64.50
20483;DHT22;10400;53.198;6.592;2023-08-17T09:23:58;19.20;61.80
20483;DHT22;10400;53.198;6.592;2023-08-17T09:26:24;19.50;67.90
20483;DHT22;10400;53.198;6.592;2023-08-17T09:28:50;19.40;57.10
20483;DHT22;10400;53.198;6.592;2023-08-17T09:31:30;19.40;58.10
20483;DHT22;10400;53.198;6.592;2023-08-17T09:33:56;19.60;57.30
20483;DHT22;10400;53.198;6.592;2023-08-17T09:36:22;19.60;39.50
20483;DHT22;10400;53.198;6.592;2023-08-17T09:38:48;19.50;37.00
20483;DHT22;10400;53.198;6.592;2023-08-17T09:41:18;19.50;40.70
20483;DHT22;10400;53.198;6.592;2023-08-17T09:43:45;19.40;39.30
20483;DHT22;10400;53.198;6.592;2023-08-17T09:46:11;19.40;51.80
20483;DHT22;10400;53.198;6.592;2023-08-17T09:48:37;19.50;39.80
20483;DHT22;10400;53.198;6.592;2023-08-17T09:51:03;19.60;50.40
20483;DHT22;10400;53.198;6.592;2023-08-17T09:53:35;19.80;55.00
20483;DHT22;10400;53.198;6.592;2023-08-17T09:56:05;20.00;32.40
20483;DHT22;10400;53.198;6.592;2023-08-17T09:58:33;20.10;30.50
20483;DHT22;10400;53.198;6.592;2023-08-17T10:01:03;20.00;27.10
20483;DHT22;10400;53.198;6.592;2023-08-17T10:03:29;19.90;34.50
20483;DHT22;10400;53.198;6.592;2023-08-17T10:06:09;20.00;39.40
20483;DHT22;10400;53.198;6.592;2023-08-17T10:08:42;20.00;51.30
20483;DHT22;10400;53.198;6.592;2023-08-17T10:11:10;20.00;42.20
20483;DHT22;10400;53.198;6.592;2023-08-17T10:13:46;20.00;74.50
20483;DHT22;10400;53.198;6.592;2023-08-17T10:16:23;20.10;43.90
20483;DHT22;10400;53.198;6.592;2023-08-17T10:19:05;20.10;35.20
20483;DHT22;10400;53.198;6.592;2023-08-17T10:21:48;20.20;41.70
20483;DHT22;10400;53.198;6.592;2023-08-17T10:24:17;20.30;38.90
20483;DHT22;10400;53.198;6.592;2023-08-17T10:26:43;20.40;25.70
20483;DHT22;10400;53.198;6.592;2023-08-17T10:29:11;20.30;15.60
20483;DHT22;10400;53.198;6.592;2023-08-17T10:31:38;20.40;45.40
20483;DHT22;10400;53.198;6.592;2023-08-17T10:34:04;20.70;25.00
20483;DHT22;10400;53.198;6.592;2023-08-17T10:36:31;20.90;5.00
20483;DHT22;10400;53.198;6.592;2023-08-17T10:39:27;20.90;1.00
20483;DHT22;10400;53.198;6.592;2023-08-17T10:41:53;20.90;1.00
20483;DHT22;10400;53.198;6.592;2023-08-17T10:44:47;20.90;1.00
20483;DHT22;10400;53.198;6.592;2023-08-17T10:47:24;21.10;1.00
20483;DHT22;10400;53.198;6.592;2023-08-17T10:49:58;21.40;1.00
20483;DHT22;10400;53.198;6.592;2023-08-17T10:52:44;21.30;1.00
20483;DHT22;10400;53.198;6.592;2023-08-17T10:55:09;21.40;1.00
20483;DHT22;10400;53.198;6.592;2023-08-17T10:57:40;21.60;1.00
20483;DHT22;10400;53.198;6.592;2023-08-17T11:02:43;21.50;1.00
20483;DHT22;10400;53.198;6.592;2023-08-17T11:05:10;21.40;1.00
20483;DHT22;10400;53.198;6.592;2023-08-17T11:07:42;21.50;1.00
20483;DHT22;10400;53.198;6.592;2023-08-17T11:12:45;21.80;1.00
20483;DHT22;10400;53.198;6.592;2023-08-17T11:15:12;21.80;1.00
20483;DHT22;10400;53.198;6.592;2023-08-17T11:17:38;21.80;1.00
20483;DHT22;10400;53.198;6.592;2023-08-17T11:20:04;21.90;1.00
20483;DHT22;10400;53.198;6.592;2023-08-17T11:22:30;21.80;1.00
20483;DHT22;10400;53.198;6.592;2023-08-17T11:24:56;22.00;1.00
20483;DHT22;10400;53.198;6.592;2023-08-17T11:27:24;22.20;1.00
20483;DHT22;10400;53.198;6.592;2023-08-17T11:29:49;22.00;1.00
20483;DHT22;10400;53.198;6.592;2023-08-17T11:32:18;22.30;1.00
20483;DHT22;10400;53.198;6.592;2023-08-17T11:34:44;22.30;1.00
20483;DHT22;10400;53.198;6.592;2023-08-17T11:37:13;22.40;1.00
20483;DHT22;10400;53.198;6.592;2023-08-17T11:39:39;22.30;1.00
20483;DHT22;10400;53.198;6.592;2023-08-17T11:42:05;21.90;1.00
20483;DHT22;10400;53.198;6.592;2023-08-17T11:44:30;21.70;1.00
20483;DHT22;10400;53.198;6.592;2023-08-17T11:46:57;22.00;1.00
20483;DHT22;10400;53.198;6.592;2023-08-17T11:49:22;22.00;1.00
20483;DHT22;10400;53.198;6.592;2023-08-17T11:51:51;21.70;1.00
20483;DHT22;10400;53.198;6.592;2023-08-17T11:54:16;21.80;1.00
20483;DHT22;10400;53.198;6.592;2023-08-17T11:56:42;21.90;1.00
20483;DHT22;10400;53.198;6.592;2023-08-17T11:59:09;21.70;1.00
20483;DHT22;10400;53.198;6.592;2023-08-17T12:01:36;21.90;1.00
20483;DHT22;10400;53.198;6.592;2023-08-17T12:04:04;21.90;1.00
20483;DHT22;10400;53.198;6.592;2023-08-17T12:06:31;21.60;1.00
20483;DHT22;10400;53.198;6.592;2023-08-17T12:08:57;21.70;1.00
20483;DHT22;10400;53.198;6.592;2023-08-17T12:11:26;21.50;1.00
20483;DHT22;10400;53.198;6.592;2023-08-17T12:13:52;21.50;1.00
20483;DHT22;10400;53.198;6.592;2023-08-17T12:16:19;21.40;1.00
20483;DHT22;10400;53.198;6.592;2023-08-17T12:18:49;21.30;5.70
20483;DHT22;10400;53.198;6.592;2023-08-17T12:21:15;21.30;10.20
20483;DHT22;10400;53.198;6.592;2023-08-17T12:23:41;21.30;6.40
20483;DHT22;10400;53.198;6.592;2023-08-17T12:26:08;21.40;22.20
20483;DHT22;10400;53.198;6.592;2023-08-17T12:28:33;21.30;6.10
20483;DHT22;10400;53.198;6.592;2023-08-17T12:31:00;21.30;21.30
20483;DHT22;10400;53.198;6.592;2023-08-17T12:33:26;21.20;38.90
20483;DHT22;10400;53.198;6.592;2023-08-17T12:35:52;21.10;41.40
20483;DHT22;10400;53.198;6.592;2023-08-17T12:38:17;21.20;52.20
20483;DHT22;10400;53.198;6.592;2023-08-17T12:40:43;21.10;39.30
20483;DHT22;10400;53.198;6.592;2023-08-17T12:43:08;20.80;59.60
20483;DHT22;10400;53.198;6.592;2023-08-17T12:45:34;20.80;75.80
20483;DHT22;10400;53.198;6.592;2023-08-17T12:48:00;20.90;83.70
20483;DHT22;10400;53.198;6.592;2023-08-17T12:50:25;21.10;77.50
20483;DHT22;10400;53.198;6.592;2023-08-17T12:52:51;21.20;50.90
20483;DHT22;10400;53.198;6.592;2023-08-17T12:55:17;21.20;61.10
20483;DHT22;10400;53.198;6.592;2023-08-17T12:57:42;21.30;44.90
20483;DHT22;10400;53.198;6.592;2023-08-17T13:00:08;21.40;45.00
20483;DHT22;10400;53.198;6.592;2023-08-17T13:02:34;21.50;45.80
20483;DHT22;10400;53.198;6.592;2023-08-17T13:05:00;21.70;30.60
20483;DHT22;10400;53.198;6.592;2023-08-17T13:07:25;21.80;36.70
20483;DHT22;10400;53.198;6.592;2023-08-17T13:09:51;21.80;14.40
20483;DHT22;10400;53.198;6.592;2023-08-17T13:12:17;21.80;9.10
20483;DHT22;10400;53.198;6.592;2023-08-17T13:14:42;21.80;11.80
20483;DHT22;10400;53.198;6.592;2023-08-17T13:17:08;21.90;15.50
20483;DHT22;10400;53.198;6.592;2023-08-17T13:19:34;21.50;33.30
20483;DHT22;10400;53.198;6.592;2023-08-17T13:21:59;21.40;49.00
20483;DHT22;10400;53.198;6.592;2023-08-17T13:24:25;21.40;52.20
20483;DHT22;10400;53.198;6.592;2023-08-17T13:26:51;21.40;52.10
20483;DHT22;10400;53.198;6.592;2023-08-17T13:29:20;21.40;55.60
20483;DHT22;10400;53.198;6.592;2023-08-17T13:31:47;21.40;58.80
20483;DHT22;10400;53.198;6.592;2023-08-17T13:34:13;21.40;60.20
20483;DHT22;10400;53.198;6.592;2023-08-17T13:36:39;21.50;65.40
20483;DHT22;10400;53.198;6.592;2023-08-17T13:39:06;21.50;66.00
20483;DHT22;10400;53.198;6.592;2023-08-17T13:41:32;21.30;62.90
20483;DHT22;10400;53.198;6.592;2023-08-17T13:43:58;21.30;62.30
20483;DHT22;10400;53.198;6.592;2023-08-17T13:46:26;21.30;76.40
20483;DHT22;10400;53.198;6.592;2023-08-17T13:48:51;21.30;70.00
20483;DHT22;10400;53.198;6.592;2023-08-17T13:51:19;21.20;74.80
20483;DHT22;10400;53.198;6.592;2023-08-17T13:53:44;21.30;77.10
20483;DHT22;10400;53.198;6.592;2023-08-17T13:56:10;21.30;87.20
20483;DHT22;10400;53.198;6.592;2023-08-17T13:58:36;21.30;70.10
20483;DHT22;10400;53.198;6.592;2023-08-17T14:01:02;21.20;67.40
20483;DHT22;10400;53.198;6.592;2023-08-17T14:03:28;21.40;66.60
20483;DHT22;10400;53.198;6.592;2023-08-17T14:05:53;21.50;58.40
20483;DHT22;10400;53.198;6.592;2023-08-17T14:08:20;21.60;41.40
20483;DHT22;10400;53.198;6.592;2023-08-17T14:10:45;21.60;30.50
20483;DHT22;10400;53.198;6.592;2023-08-17T14:13:11;21.50;30.00
20483;DHT22;10400;53.198;6.592;2023-08-17T14:15:37;21.50;48.10
20483;DHT22;10400;53.198;6.592;2023-08-17T14:18:02;21.50;43.40
20483;DHT22;10400;53.198;6.592;2023-08-17T14:20:29;21.40;46.60
20483;DHT22;10400;53.198;6.592;2023-08-17T14:22:54;21.10;71.20
20483;DHT22;10400;53.198;6.592;2023-08-17T14:25:20;21.10;86.80
20483;DHT22;10400;53.198;6.592;2023-08-17T14:27:46;21.00;75.50
20483;DHT22;10400;53.198;6.592;2023-08-17T14:30:11;21.10;91.50
20483;DHT22;10400;53.198;6.592;2023-08-17T14:32:37;21.00;90.20
20483;DHT22;10400;53.198;6.592;2023-08-17T14:35:03;21.00;86.00
20483;DHT22;10400;53.198;6.592;2023-08-17T14:37:29;21.00;91.10
20483;DHT22;10400;53.198;6.592;2023-08-17T14:39:54;21.00;91.20
20483;DHT22;10400;53.198;6.592;2023-08-17T14:42:20;20.90;99.60
20483;DHT22;10400;53.198;6.592;2023-08-17T14:44:46;20.80;99.90
20483;DHT22;10400;53.198;6.592;2023-08-17T14:47:11;20.70;99.90
20483;DHT22;10400;53.198;6.592;2023-08-17T14:49:37;20.80;99.90
20483;DHT22;10400;53.198;6.592;2023-08-17T14:52:03;20.70;99.90
20483;DHT22;10400;53.198;6.592;2023-08-17T14:54:28;20.80;99.90
20483;DHT22;10400;53.198;6.592;2023-08-17T14:56:54;20.80;99.90
20483;DHT22;10400;53.198;6.592;2023-08-17T14:59:20;20.70;99.90
20483;DHT22;10400;53.198;6.592;2023-08-17T15:01:45;20.70;99.90
20483;DHT22;10400;53.198;6.592;2023-08-17T15:04:11;20.70;99.90
20483;DHT22;10400;53.198;6.592;2023-08-17T15:06:36;20.70;99.90
20483;DHT22;10400;53.198;6.592;2023-08-17T15:09:02;20.60;99.90
20483;DHT22;10400;53.198;6.592;2023-08-17T15:11:28;20.60;99.90
20483;DHT22;10400;53.198;6.592;2023-08-17T15:13:54;20.70;99.90
20483;DHT22;10400;53.198;6.592;2023-08-17T15:16:20;20.70;99.90
20483;DHT22;10400;53.198;6.592;2023-08-17T15:18:51;20.70;99.90
20483;DHT22;10400;53.198;6.592;2023-08-17T15:21:16;20.60;99.90
20483;DHT22;10400;53.198;6.592;2023-08-17T15:23:42;20.60;99.90
20483;DHT22;10400;53.198;6.592;2023-08-17T15:26:08;20.70;99.90
20483;DHT22;10400;53.198;6.592;2023-08-17T15:28:33;20.60;99.90
20483;DHT22;10400;53.198;6.592;2023-08-17T15:31:01;20.60;99.90
20483;DHT22;10400;53.198;6.592;2023-08-17T15:33:31;20.60;99.90
20483;DHT22;10400;53.198;6.592;2023-08-17T15:35:56;20.70;99.90
20483;DHT22;10400;53.198;6.592;2023-08-17T15:38:24;20.70;99.90
20483;DHT22;10400;53.198;6.592;2023-08-17T15:40:50;20.70;99.90